sensor_id;sensor_type;location;lat;lon;timestamp;temperature;humidity
22173;DHT22;11252;50.596;17.648;2023-12-07T00:00:48;0.60;92.20
22173;DHT22;11252;50.596;17.648;2023-12-07T00:03:15;0.50;92.20
22173;DHT22;11252;50.596;17.648;2023-12-07T00:05:42;0.60;92.20
22173;DHT22;11252;50.596;17.648;2023-12-07T00:08:10;0.50;92.20
22173;DHT22;11252;50.596;17.648;2023-12-07T00:10:37;0.50;92.20
22173;DHT22;11252;50.596;17.648;2023-12-07T00:13:04;0.50;92.20
22173;DHT22;11252;50.596;17.648;2023-12-07T00:15:31;0.50;92.20
22173;DHT22;11252;50.596;17.648;2023-12-07T00:17:59;0.50;92.20
22173;DHT22;11252;50.596;17.648;2023-12-07T00:20:27;0.50;92.20
22173;DHT22;11252;50.596;17.648;2023-12-07T00:22:54;0.50;92.20
22173;DHT22;11252;50.596;17.648;2023-12-07T00:25:22;0.50;92.20
22173;DHT22;11252;50.596;17.648;2023-12-07T00:27:49;0.50;92.20
22173;DHT22;11252;50.596;17.648;2023-12-07T00:30:16;0.50;92.20
22173;DHT22;11252;50.596;17.648;2023-12-07T00:32:43;0.50;92.20
22173;DHT22;11252;50.596;17.648;2023-12-07T00:35:10;0.50;92.20
22173;DHT22;11252;50.596;17.648;2023-12-07T00:37:37;0.50;92.20
22173;DHT22;11252;50.596;17.648;2023-12-07T00:40:05;0.50;92.20
22173;DHT22;11252;50.596;17.648;2023-12-07T00:42:32;0.50;92.20
22173;DHT22;11252;50.596;17.648;2023-12-07T00:44:59;0.50;92.20
22173;DHT22;11252;50.596;17.648;2023-12-07T00:47:26;0.50;92.20
22173;DHT22;11252;50.596;17.648;2023-12-07T00:49:53;0.50;92.20
22173;DHT22;11252;50.596;17.648;2023-12-07T00:52:20;0.50;92.20
22173;DHT22;11252;50.596;17.648;2023-12-07T00:54:47;0.50;92.20
22173;DHT22;11252;50.596;17.648;2023-12-07T00:57:14;0.60;92.20
22173;DHT22;11252;50.596;17.648;2023-12-07T00:59:41;0.60;92.20
22173;DHT22;11252;50.596;17.648;2023-12-07T01:02:08;0.50;92.20
22173;DHT22;11252;50.596;17.648;2023-12-07T01:04:35;0.50;92.20
22173;DHT22;11252;50.596;17.648;2023-12-07T01:07:02;0.50;92.20
22173;DHT22;11252;50.596;17.648;2023-12-07T01:09:30;0.50;92.20
22173;DHT22;11252;50.596;17.648;2023-12-07T01:11:57;0.50;92.20
22173;DHT22;11252;50.596;17.648;2023-12-07T01:14:25;0.50;92.20
22173;DHT22;11252;50.596;17.648;2023-12-07T01:16:52;0.50;92.20
22173;DHT22;11252;50.596;17.648;2023-12-07T01:19:19;0.50;92.20
22173;DHT22;11252;50.596;17.648;2023-12-07T01:21:46;0.50;92.20
22173;DHT22;11252;50.596;17.648;2023-12-07T01:24:13;0.50;92.20
22173;DHT22;11252;50.596;17.648;2023-12-07T01:26:43;0.50;92.20
22173;DHT22;11252;50.596;17.648;2023-12-07T01:29:10;0.40;92.20
22173;DHT22;11252;50.596;17.648;2023-12-07T01:31:37;0.40;92.20
22173;DHT22;11252;50.596;17.648;2023-12-07T01:34:04;0.40;92.20
22173;DHT22;11252;50.596;17.648;2023-12-07T01:36:31;0.40;92.20
22173;DHT22;11252;50.596;17.648;2023-12-07T01:38:58;0.40;92.20
22173;DHT22;11252;50.596;17.648;2023-12-07T01:41:25;0.40;92.20
22173;DHT22;11252;50.596;17.648;2023-12-07T01:43:52;0.40;92.20
22173;DHT22;11252;50.596;17.648;2023-12-07T01:46:20;0.40;92.20
22173;DHT22;11252;50.596;17.648;2023-12-07T01:48:47;0.40;92.20
22173;DHT22;11252;50.596;17.648;2023-12-07T01:51:17;0.40;92.20
22173;DHT22;11252;50.596;17.648;2023-12-07T01:53:45;0.30;92.20
22173;DHT22;11252;50.596;17.648;2023-12-07T01:56:13;0.30;92.20
22173;DHT22;11252;50.596;17.648;2023-12-07T01:58:40;0.30;92.20
22173;DHT22;11252;50.596;17.648;2023-12-07T02:01:08;0.30;92.20
22173;DHT22;11252;50.596;17.648;2023-12-07T02:03:40;0.30;92.20
22173;DHT22;11252;50.596;17.648;2023-12-07T02:06:07;0.30;92.20
22173;DHT22;11252;50.596;17.648;2023-12-07T02:08:36;0.40;92.20
22173;DHT22;11252;50.596;17.648;2023-12-07T02:11:08;0.40;92.20
22173;DHT22;11252;50.596;17.648;2023-12-07T02:13:40;0.40;92.20
22173;DHT22;11252;50.596;17.648;2023-12-07T02:16:21;0.40;92.20
22173;DHT22;11252;50.596;17.648;2023-12-07T02:21:58;0.40;92.20
22173;DHT22;11252;50.596;17.648;2023-12-07T02:24:27;0.40;92.20
22173;DHT22;11252;50.596;17.648;2023-12-07T02:26:59;0.40;92.20
22173;DHT22;11252;50.596;17.648;2023-12-07T02:29:27;0.40;92.20
22173;DHT22;11252;50.596;17.648;2023-12-07T02:31:54;0.30;92.20
22173;DHT22;11252;50.596;17.648;2023-12-07T02:34:21;0.40;92.20
22173;DHT22;11252;50.596;17.648;2023-12-07T02:36:48;0.30;92.20
22173;DHT22;11252;50.596;17.648;2023-12-07T02:39:17;0.30;92.20
22173;DHT22;11252;50.596;17.648;2023-12-07T02:41:45;0.30;92.20
22173;DHT22;11252;50.596;17.648;2023-12-07T02:44:13;0.30;92.20
22173;DHT22;11252;50.596;17.648;2023-12-07T02:46:41;0.30;92.20
22173;DHT22;11252;50.596;17.648;2023-12-07T02:49:08;0.30;92.20
22173;DHT22;11252;50.596;17.648;2023-12-07T02:51:35;0.20;92.20
22173;DHT22;11252;50.596;17.648;2023-12-07T02:54:03;0.20;92.20
22173;DHT22;11252;50.596;17.648;2023-12-07T02:56:29;0.20;92.20
22173;DHT22;11252;50.596;17.648;2023-12-07T02:58:57;0.20;92.20
22173;DHT22;11252;50.596;17.648;2023-12-07T03:01:24;0.20;92.20
22173;DHT22;11252;50.596;17.648;2023-12-07T03:03:51;0.20;92.20
22173;DHT22;11252;50.596;17.648;2023-12-07T03:06:18;0.20;92.20
22173;DHT22;11252;50.596;17.648;2023-12-07T03:08:46;0.10;92.20
22173;DHT22;11252;50.596;17.648;2023-12-07T03:11:13;0.10;92.20
22173;DHT22;11252;50.596;17.648;2023-12-07T03:13:40;0.10;92.20
22173;DHT22;11252;50.596;17.648;2023-12-07T03:16:08;0.10;92.20
22173;DHT22;11252;50.596;17.648;2023-12-07T03:18:37;0.10;92.20
22173;DHT22;11252;50.596;17.648;2023-12-07T03:21:04;0.10;92.20
22173;DHT22;11252;50.596;17.648;2023-12-07T03:23:31;0.10;92.20
22173;DHT22;11252;50.596;17.648;2023-12-07T03:25:58;0.10;92.20
22173;DHT22;11252;50.596;17.648;2023-12-07T03:28:25;0.10;92.20
22173;DHT22;11252;50.596;17.648;2023-12-07T03:30:53;0.10;92.20
22173;DHT22;11252;50.596;17.648;2023-12-07T03:33:19;0.10;92.20
22173;DHT22;11252;50.596;17.648;2023-12-07T03:35:47;0.10;92.20
22173;DHT22;11252;50.596;17.648;2023-12-07T03:38:14;0.10;92.20
22173;DHT22;11252;50.596;17.648;2023-12-07T03:40:41;0.10;92.20
22173;DHT22;11252;50.596;17.648;2023-12-07T03:43:08;0.10;92.20
22173;DHT22;11252;50.596;17.648;2023-12-07T03:45:35;0.10;92.20
22173;DHT22;11252;50.596;17.648;2023-12-07T03:48:02;0.10;92.20
22173;DHT22;11252;50.596;17.648;2023-12-07T03:50:30;0.10;92.20
22173;DHT22;11252;50.596;17.648;2023-12-07T03:52:57;0.00;92.20
22173;DHT22;11252;50.596;17.648;2023-12-07T03:55:28;0.00;92.20
22173;DHT22;11252;50.596;17.648;2023-12-07T03:57:58;0.00;92.20
22173;DHT22;11252;50.596;17.648;2023-12-07T04:00:25;0.00;92.20
22173;DHT22;11252;50.596;17.648;2023-12-07T04:02:52;0.00;92.20
22173;DHT22;11252;50.596;17.648;2023-12-07T04:05:19;0.00;92.20
22173;DHT22;11252;50.596;17.648;2023-12-07T04:07:46;0.00;92.20
22173;DHT22;11252;50.596;17.648;2023-12-07T04:10:13;0.00;92.20
22173;DHT22;11252;50.596;17.648;2023-12-07T04:12:41;0.00;92.20
22173;DHT22;11252;50.596;17.648;2023-12-07T04:15:08;0.00;92.20
22173;DHT22;11252;50.596;17.648;2023-12-07T04:17:35;0.00;92.20
22173;DHT22;11252;50.596;17.648;2023-12-07T04:20:02;0.00;92.20
22173;DHT22;11252;50.596;17.648;2023-12-07T04:22:30;0.00;92.20
22173;DHT22;11252;50.596;17.648;2023-12-07T04:24:58;0.00;92.20
22173;DHT22;11252;50.596;17.648;2023-12-07T04:27:25;0.00;92.20
22173;DHT22;11252;50.596;17.648;2023-12-07T04:29:52;0.00;92.20
22173;DHT22;11252;50.596;17.648;2023-12-07T04:32:19;0.00;92.20
22173;DHT22;11252;50.596;17.648;2023-12-07T04:34:46;0.00;92.20
22173;DHT22;11252;50.596;17.648;2023-12-07T04:37:13;0.00;92.20
22173;DHT22;11252;50.596;17.648;2023-12-07T04:39:40;0.00;92.20
22173;DHT22;11252;50.596;17.648;2023-12-07T04:42:07;0.00;92.20
22173;DHT22;11252;50.596;17.648;2023-12-07T04:44:34;0.00;92.20
22173;DHT22;11252;50.596;17.648;2023-12-07T04:47:01;0.00;92.20
22173;DHT22;11252;50.596;17.648;2023-12-07T04:49:32;0.00;92.20
22173;DHT22;11252;50.596;17.648;2023-12-07T04:51:59;-0.10;92.20
22173;DHT22;11252;50.596;17.648;2023-12-07T04:54:26;-0.10;92.20
22173;DHT22;11252;50.596;17.648;2023-12-07T04:56:54;-0.10;92.20
22173;DHT22;11252;50.596;17.648;2023-12-07T04:59:21;-0.10;92.20
22173;DHT22;11252;50.596;17.648;2023-12-07T05:01:48;-0.10;92.20
22173;DHT22;11252;50.596;17.648;2023-12-07T05:04:15;-0.10;92.20
22173;DHT22;11252;50.596;17.648;2023-12-07T05:06:42;-0.10;92.20
22173;DHT22;11252;50.596;17.648;2023-12-07T05:09:09;-0.10;92.20
22173;DHT22;11252;50.596;17.648;2023-12-07T05:11:36;-0.10;92.20
22173;DHT22;11252;50.596;17.648;2023-12-07T05:14:04;-0.10;92.20
22173;DHT22;11252;50.596;17.648;2023-12-07T05:16:31;-0.10;92.20
22173;DHT22;11252;50.596;17.648;2023-12-07T05:18:58;-0.10;92.20
22173;DHT22;11252;50.596;17.648;2023-12-07T05:21:25;-0.10;92.20
22173;DHT22;11252;50.596;17.648;2023-12-07T05:23:52;-0.10;92.20
22173;DHT22;11252;50.596;17.648;2023-12-07T05:26:19;0.00;92.20
22173;DHT22;11252;50.596;17.648;2023-12-07T05:28:48;-0.10;92.20
22173;DHT22;11252;50.596;17.648;2023-12-07T05:31:18;-0.10;92.20
22173;DHT22;11252;50.596;17.648;2023-12-07T05:33:45;-0.10;92.20
22173;DHT22;11252;50.596;17.648;2023-12-07T05:36:14;-0.10;92.20
22173;DHT22;11252;50.596;17.648;2023-12-07T05:38:41;-0.10;92.20
22173;DHT22;11252;50.596;17.648;2023-12-07T05:41:08;-0.10;92.20
22173;DHT22;11252;50.596;17.648;2023-12-07T05:43:36;-0.10;92.20
22173;DHT22;11252;50.596;17.648;2023-12-07T05:46:03;-0.10;92.20
22173;DHT22;11252;50.596;17.648;2023-12-07T05:48:30;-0.20;92.20
22173;DHT22;11252;50.596;17.648;2023-12-07T05:50:57;-0.20;92.20
22173;DHT22;11252;50.596;17.648;2023-12-07T05:53:24;-0.20;92.20
22173;DHT22;11252;50.596;17.648;2023-12-07T05:55:51;-0.20;92.20
22173;DHT22;11252;50.596;17.648;2023-12-07T05:58:19;-0.20;92.20
22173;DHT22;11252;50.596;17.648;2023-12-07T06:00:46;-0.20;92.20
22173;DHT22;11252;50.596;17.648;2023-12-07T06:03:14;-0.20;92.20
22173;DHT22;11252;50.596;17.648;2023-12-07T06:05:42;-0.20;92.20
22173;DHT22;11252;50.596;17.648;2023-12-07T06:08:12;-0.20;92.20
22173;DHT22;11252;50.596;17.648;2023-12-07T06:10:39;-0.10;92.20
22173;DHT22;11252;50.596;17.648;2023-12-07T06:13:06;-0.10;92.20
22173;DHT22;11252;50.596;17.648;2023-12-07T06:15:33;-0.20;92.20
22173;DHT22;11252;50.596;17.648;2023-12-07T06:18:00;-0.20;92.20
22173;DHT22;11252;50.596;17.648;2023-12-07T06:20:28;-0.20;92.20
22173;DHT22;11252;50.596;17.648;2023-12-07T06:22:55;-0.20;92.20
22173;DHT22;11252;50.596;17.648;2023-12-07T06:25:22;-0.20;92.20
22173;DHT22;11252;50.596;17.648;2023-12-07T06:27:50;-0.10;92.20
22173;DHT22;11252;50.596;17.648;2023-12-07T06:30:17;-0.20;92.20
22173;DHT22;11252;50.596;17.648;2023-12-07T06:32:44;-0.20;92.20
22173;DHT22;11252;50.596;17.648;2023-12-07T06:35:12;-0.20;92.20
22173;DHT22;11252;50.596;17.648;2023-12-07T06:37:49;-0.20;92.20
22173;DHT22;11252;50.596;17.648;2023-12-07T06:40:16;-0.20;92.20
22173;DHT22;11252;50.596;17.648;2023-12-07T06:42:44;-0.30;92.20
22173;DHT22;11252;50.596;17.648;2023-12-07T06:45:11;-0.30;92.20
22173;DHT22;11252;50.596;17.648;2023-12-07T06:47:41;-0.30;92.20
22173;DHT22;11252;50.596;17.648;2023-12-07T06:50:10;-0.30;92.20
22173;DHT22;11252;50.596;17.648;2023-12-07T06:52:38;-0.30;92.20
22173;DHT22;11252;50.596;17.648;2023-12-07T06:55:05;-0.30;92.20
22173;DHT22;11252;50.596;17.648;2023-12-07T06:57:33;-0.30;92.20
22173;DHT22;11252;50.596;17.648;2023-12-07T07:00:00;-0.30;92.20
22173;DHT22;11252;50.596;17.648;2023-12-07T07:02:28;-0.30;92.20
22173;DHT22;11252;50.596;17.648;2023-12-07T07:04:55;-0.30;92.20
22173;DHT22;11252;50.596;17.648;2023-12-07T07:07:22;-0.30;92.20
22173;DHT22;11252;50.596;17.648;2023-12-07T07:09:50;-0.30;92.20
22173;DHT22;11252;50.596;17.648;2023-12-07T07:12:17;-0.20;92.20
22173;DHT22;11252;50.596;17.648;2023-12-07T07:14:44;-0.20;92.20
22173;DHT22;11252;50.596;17.648;2023-12-07T07:17:11;-0.20;92.20
22173;DHT22;11252;50.596;17.648;2023-12-07T07:19:38;-0.20;92.20
22173;DHT22;11252;50.596;17.648;2023-12-07T07:22:05;-0.20;92.20
22173;DHT22;11252;50.596;17.648;2023-12-07T07:24:32;-0.20;92.20
22173;DHT22;11252;50.596;17.648;2023-12-07T07:26:59;-0.20;92.20
22173;DHT22;11252;50.596;17.648;2023-12-07T07:29:26;-0.20;92.20
22173;DHT22;11252;50.596;17.648;2023-12-07T07:31:56;-0.20;92.20
22173;DHT22;11252;50.596;17.648;2023-12-07T07:34:23;-0.20;92.20
22173;DHT22;11252;50.596;17.648;2023-12-07T07:36:50;-0.20;92.20
22173;DHT22;11252;50.596;17.648;2023-12-07T07:39:17;-0.20;92.20
22173;DHT22;11252;50.596;17.648;2023-12-07T07:41:44;-0.20;92.20
22173;DHT22;11252;50.596;17.648;2023-12-07T07:44:11;-0.20;92.20
22173;DHT22;11252;50.596;17.648;2023-12-07T07:46:40;-0.20;92.20
22173;DHT22;11252;50.596;17.648;2023-12-07T07:49:07;-0.20;92.20
22173;DHT22;11252;50.596;17.648;2023-12-07T07:51:38;-0.20;92.20
22173;DHT22;11252;50.596;17.648;2023-12-07T07:54:05;-0.20;92.20
22173;DHT22;11252;50.596;17.648;2023-12-07T07:56:32;-0.20;92.20
22173;DHT22;11252;50.596;17.648;2023-12-07T07:58:59;-0.20;92.20
22173;DHT22;11252;50.596;17.648;2023-12-07T08:01:27;-0.20;92.20
22173;DHT22;11252;50.596;17.648;2023-12-07T08:03:54;-0.20;92.20
22173;DHT22;11252;50.596;17.648;2023-12-07T08:06:21;-0.10;92.20
22173;DHT22;11252;50.596;17.648;2023-12-07T08:08:48;-0.10;92.20
22173;DHT22;11252;50.596;17.648;2023-12-07T08:11:16;-0.10;92.20
22173;DHT22;11252;50.596;17.648;2023-12-07T08:13:43;-0.10;92.20
22173;DHT22;11252;50.596;17.648;2023-12-07T08:16:10;-0.10;92.20
22173;DHT22;11252;50.596;17.648;2023-12-07T08:18:37;0.00;92.20
22173;DHT22;11252;50.596;17.648;2023-12-07T08:21:04;0.00;92.20
22173;DHT22;11252;50.596;17.648;2023-12-07T08:23:35;-0.10;92.20
22173;DHT22;11252;50.596;17.648;2023-12-07T08:26:02;0.00;92.20
22173;DHT22;11252;50.596;17.648;2023-12-07T08:28:30;0.00;92.20
22173;DHT22;11252;50.596;17.648;2023-12-07T08:30:57;0.00;92.20
22173;DHT22;11252;50.596;17.648;2023-12-07T08:33:24;0.00;92.20
22173;DHT22;11252;50.596;17.648;2023-12-07T08:35:52;0.00;92.20
22173;DHT22;11252;50.596;17.648;2023-12-07T08:38:22;0.10;92.20
22173;DHT22;11252;50.596;17.648;2023-12-07T08:40:49;0.10;92.20
22173;DHT22;11252;50.596;17.648;2023-12-07T08:43:19;0.10;92.20
22173;DHT22;11252;50.596;17.648;2023-12-07T08:45:46;0.10;92.20
22173;DHT22;11252;50.596;17.648;2023-12-07T08:48:13;0.20;92.20
22173;DHT22;11252;50.596;17.648;2023-12-07T08:50:40;0.20;92.20
22173;DHT22;11252;50.596;17.648;2023-12-07T08:53:07;0.20;92.20
22173;DHT22;11252;50.596;17.648;2023-12-07T08:55:34;0.20;92.20
22173;DHT22;11252;50.596;17.648;2023-12-07T08:58:01;0.20;92.20
22173;DHT22;11252;50.596;17.648;2023-12-07T09:00:31;0.20;92.20
22173;DHT22;11252;50.596;17.648;2023-12-07T09:02:58;0.20;92.20
22173;DHT22;11252;50.596;17.648;2023-12-07T09:05:29;0.20;92.20
22173;DHT22;11252;50.596;17.648;2023-12-07T09:07:57;0.20;92.20
22173;DHT22;11252;50.596;17.648;2023-12-07T09:10:24;0.20;92.20
22173;DHT22;11252;50.596;17.648;2023-12-07T09:12:51;0.20;92.20
22173;DHT22;11252;50.596;17.648;2023-12-07T09:15:18;0.20;92.20
22173;DHT22;11252;50.596;17.648;2023-12-07T09:17:45;0.30;92.20
22173;DHT22;11252;50.596;17.648;2023-12-07T09:20:12;0.30;92.20
22173;DHT22;11252;50.596;17.648;2023-12-07T09:22:46;0.30;92.20
22173;DHT22;11252;50.596;17.648;2023-12-07T09:25:15;0.40;92.20
22173;DHT22;11252;50.596;17.648;2023-12-07T09:27:43;0.40;92.20
22173;DHT22;11252;50.596;17.648;2023-12-07T09:30:10;0.40;92.20
22173;DHT22;11252;50.596;17.648;2023-12-07T09:32:42;0.50;92.20
22173;DHT22;11252;50.596;17.648;2023-12-07T09:35:11;0.50;92.20
22173;DHT22;11252;50.596;17.648;2023-12-07T09:37:48;0.40;92.20
22173;DHT22;11252;50.596;17.648;2023-12-07T09:40:17;0.50;92.20
22173;DHT22;11252;50.596;17.648;2023-12-07T09:42:45;0.50;92.20
22173;DHT22;11252;50.596;17.648;2023-12-07T09:45:13;0.50;92.20
22173;DHT22;11252;50.596;17.648;2023-12-07T09:47:50;0.50;92.20
22173;DHT22;11252;50.596;17.648;2023-12-07T09:50:19;0.50;92.20
22173;DHT22;11252;50.596;17.648;2023-12-07T09:52:52;0.40;92.20
22173;DHT22;11252;50.596;17.648;2023-12-07T09:55:33;0.50;92.20
22173;DHT22;11252;50.596;17.648;2023-12-07T09:58:04;0.50;92.20
22173;DHT22;11252;50.596;17.648;2023-12-07T10:00:33;0.50;92.20
22173;DHT22;11252;50.596;17.648;2023-12-07T10:03:01;0.60;92.20
22173;DHT22;11252;50.596;17.648;2023-12-07T10:05:28;0.70;92.20
22173;DHT22;11252;50.596;17.648;2023-12-07T10:07:57;0.80;92.20
22173;DHT22;11252;50.596;17.648;2023-12-07T10:10:24;0.80;92.20
22173;DHT22;11252;50.596;17.648;2023-12-07T10:12:53;0.90;92.20
22173;DHT22;11252;50.596;17.648;2023-12-07T10:15:22;0.90;92.20
22173;DHT22;11252;50.596;17.648;2023-12-07T10:17:52;0.90;92.20
22173;DHT22;11252;50.596;17.648;2023-12-07T10:20:23;0.90;92.20
22173;DHT22;11252;50.596;17.648;2023-12-07T10:23:08;0.90;92.20
22173;DHT22;11252;50.596;17.648;2023-12-07T10:25:39;1.00;92.20
22173;DHT22;11252;50.596;17.648;2023-12-07T10:28:08;0.90;92.20
22173;DHT22;11252;50.596;17.648;2023-12-07T10:30:41;1.00;92.20
22173;DHT22;11252;50.596;17.648;2023-12-07T10:33:11;0.90;92.20
22173;DHT22;11252;50.596;17.648;2023-12-07T10:35:41;0.90;92.20
22173;DHT22;11252;50.596;17.648;2023-12-07T10:38:12;0.80;92.20
22173;DHT22;11252;50.596;17.648;2023-12-07T10:40:40;0.80;92.20
22173;DHT22;11252;50.596;17.648;2023-12-07T10:43:08;0.70;92.20
22173;DHT22;11252;50.596;17.648;2023-12-07T10:45:36;0.70;92.20
22173;DHT22;11252;50.596;17.648;2023-12-07T10:48:09;0.70;92.20
22173;DHT22;11252;50.596;17.648;2023-12-07T10:50:41;0.80;92.20
22173;DHT22;11252;50.596;17.648;2023-12-07T10:53:19;0.80;92.20
22173;DHT22;11252;50.596;17.648;2023-12-07T10:55:56;0.80;92.20
22173;DHT22;11252;50.596;17.648;2023-12-07T10:58:24;0.80;92.20
22173;DHT22;11252;50.596;17.648;2023-12-07T11:00:55;0.80;92.20
22173;DHT22;11252;50.596;17.648;2023-12-07T11:03:26;0.80;92.20
22173;DHT22;11252;50.596;17.648;2023-12-07T11:05:54;0.80;92.20
22173;DHT22;11252;50.596;17.648;2023-12-07T11:08:30;0.80;92.20
22173;DHT22;11252;50.596;17.648;2023-12-07T11:11:20;0.80;92.20
22173;DHT22;11252;50.596;17.648;2023-12-07T11:13:57;0.80;92.20
22173;DHT22;11252;50.596;17.648;2023-12-07T11:16:35;0.80;92.20
22173;DHT22;11252;50.596;17.648;2023-12-07T11:19:04;0.80;92.20
22173;DHT22;11252;50.596;17.648;2023-12-07T11:21:38;0.90;92.20
22173;DHT22;11252;50.596;17.648;2023-12-07T11:24:06;0.80;92.20
22173;DHT22;11252;50.596;17.648;2023-12-07T11:26:32;0.90;92.20
22173;DHT22;11252;50.596;17.648;2023-12-07T11:29:00;0.80;92.20
22173;DHT22;11252;50.596;17.648;2023-12-07T11:31:33;0.80;92.20
22173;DHT22;11252;50.596;17.648;2023-12-07T11:34:06;0.80;92.20
22173;DHT22;11252;50.596;17.648;2023-12-07T11:36:35;0.90;92.20
22173;DHT22;11252;50.596;17.648;2023-12-07T11:41:45;0.80;92.20
22173;DHT22;11252;50.596;17.648;2023-12-07T11:44:24;0.80;92.20
22173;DHT22;11252;50.596;17.648;2023-12-07T11:46:59;0.80;92.20
22173;DHT22;11252;50.596;17.648;2023-12-07T11:49:27;0.90;92.20
22173;DHT22;11252;50.596;17.648;2023-12-07T11:52:16;0.90;92.20
22173;DHT22;11252;50.596;17.648;2023-12-07T11:54:44;0.90;92.20
22173;DHT22;11252;50.596;17.648;2023-12-07T11:57:15;0.90;92.20
22173;DHT22;11252;50.596;17.648;2023-12-07T11:59:46;0.90;92.20
22173;DHT22;11252;50.596;17.648;2023-12-07T12:02:15;0.90;92.20
22173;DHT22;11252;50.596;17.648;2023-12-07T12:04:42;0.90;92.20
22173;DHT22;11252;50.596;17.648;2023-12-07T12:07:10;1.00;92.20
22173;DHT22;11252;50.596;17.648;2023-12-07T12:09:40;1.00;92.20
22173;DHT22;11252;50.596;17.648;2023-12-07T12:12:07;1.00;92.20
22173;DHT22;11252;50.596;17.648;2023-12-07T12:14:36;1.00;92.20
22173;DHT22;11252;50.596;17.648;2023-12-07T12:17:05;1.00;92.20
22173;DHT22;11252;50.596;17.648;2023-12-07T12:19:32;1.00;92.20
22173;DHT22;11252;50.596;17.648;2023-12-07T12:22:02;1.00;92.20
22173;DHT22;11252;50.596;17.648;2023-12-07T12:24:37;1.00;92.20
22173;DHT22;11252;50.596;17.648;2023-12-07T12:27:05;1.00;92.20
22173;DHT22;11252;50.596;17.648;2023-12-07T12:29:33;1.00;92.20
22173;DHT22;11252;50.596;17.648;2023-12-07T12:32:02;1.00;92.20
22173;DHT22;11252;50.596;17.648;2023-12-07T12:34:32;1.00;92.20
22173;DHT22;11252;50.596;17.648;2023-12-07T12:37:00;1.10;92.20
22173;DHT22;11252;50.596;17.648;2023-12-07T12:39:29;1.10;92.20
22173;DHT22;11252;50.596;17.648;2023-12-07T12:42:01;1.10;92.20
22173;DHT22;11252;50.596;17.648;2023-12-07T12:44:33;1.10;92.20
22173;DHT22;11252;50.596;17.648;2023-12-07T12:47:08;1.10;92.20
22173;DHT22;11252;50.596;17.648;2023-12-07T12:49:41;1.10;92.20
22173;DHT22;11252;50.596;17.648;2023-12-07T12:52:14;1.10;92.20
22173;DHT22;11252;50.596;17.648;2023-12-07T12:54:43;1.00;92.20
22173;DHT22;11252;50.596;17.648;2023-12-07T12:57:10;1.00;92.20
22173;DHT22;11252;50.596;17.648;2023-12-07T12:59:38;1.00;92.20
22173;DHT22;11252;50.596;17.648;2023-12-07T13:02:05;1.10;92.20
22173;DHT22;11252;50.596;17.648;2023-12-07T13:04:32;1.10;92.20
22173;DHT22;11252;50.596;17.648;2023-12-07T13:07:04;1.00;92.20
22173;DHT22;11252;50.596;17.648;2023-12-07T13:09:31;1.00;92.20
22173;DHT22;11252;50.596;17.648;2023-12-07T13:11:59;1.00;92.20
22173;DHT22;11252;50.596;17.648;2023-12-07T13:14:31;1.00;92.20
22173;DHT22;11252;50.596;17.648;2023-12-07T13:17:03;0.90;92.20
22173;DHT22;11252;50.596;17.648;2023-12-07T13:19:31;0.90;92.20
22173;DHT22;11252;50.596;17.648;2023-12-07T13:22:00;0.90;92.20
22173;DHT22;11252;50.596;17.648;2023-12-07T13:24:27;0.90;92.20
22173;DHT22;11252;50.596;17.648;2023-12-07T13:26:54;0.90;92.20
22173;DHT22;11252;50.596;17.648;2023-12-07T13:29:24;0.90;92.20
22173;DHT22;11252;50.596;17.648;2023-12-07T13:32:01;0.90;92.20
22173;DHT22;11252;50.596;17.648;2023-12-07T13:34:29;0.90;92.20
22173;DHT22;11252;50.596;17.648;2023-12-07T13:36:56;0.90;92.20
22173;DHT22;11252;50.596;17.648;2023-12-07T13:39:23;0.90;92.20
22173;DHT22;11252;50.596;17.648;2023-12-07T13:41:57;0.90;92.20
22173;DHT22;11252;50.596;17.648;2023-12-07T13:44:26;0.90;92.20
22173;DHT22;11252;50.596;17.648;2023-12-07T13:46:55;0.90;92.20
22173;DHT22;11252;50.596;17.648;2023-12-07T13:49:24;0.90;92.20
22173;DHT22;11252;50.596;17.648;2023-12-07T13:52:03;0.90;92.20
22173;DHT22;11252;50.596;17.648;2023-12-07T13:54:35;0.90;92.20
22173;DHT22;11252;50.596;17.648;2023-12-07T13:57:06;0.90;92.20
22173;DHT22;11252;50.596;17.648;2023-12-07T13:59:35;0.90;92.20
22173;DHT22;11252;50.596;17.648;2023-12-07T14:02:04;0.90;92.20
22173;DHT22;11252;50.596;17.648;2023-12-07T14:04:31;0.90;92.20
22173;DHT22;11252;50.596;17.648;2023-12-07T14:07:14;0.90;92.20
22173;DHT22;11252;50.596;17.648;2023-12-07T14:09:44;0.90;92.20
22173;DHT22;11252;50.596;17.648;2023-12-07T14:12:23;0.80;92.20
22173;DHT22;11252;50.596;17.648;2023-12-07T14:14:51;0.80;92.20
22173;DHT22;11252;50.596;17.648;2023-12-07T14:17:18;0.70;92.20
22173;DHT22;11252;50.596;17.648;2023-12-07T14:19:46;0.70;92.20
22173;DHT22;11252;50.596;17.648;2023-12-07T14:22:18;0.70;92.20
22173;DHT22;11252;50.596;17.648;2023-12-07T14:24:45;0.70;92.20
22173;DHT22;11252;50.596;17.648;2023-12-07T14:27:14;0.70;92.20
22173;DHT22;11252;50.596;17.648;2023-12-07T14:29:42;0.70;92.20
22173;DHT22;11252;50.596;17.648;2023-12-07T14:32:09;0.70;92.20
22173;DHT22;11252;50.596;17.648;2023-12-07T14:34:37;0.70;92.20
22173;DHT22;11252;50.596;17.648;2023-12-07T14:37:04;0.70;92.20
22173;DHT22;11252;50.596;17.648;2023-12-07T14:39:35;0.80;92.20
22173;DHT22;11252;50.596;17.648;2023-12-07T14:42:02;0.80;92.20
22173;DHT22;11252;50.596;17.648;2023-12-07T14:44:31;0.70;92.20
22173;DHT22;11252;50.596;17.648;2023-12-07T14:46:59;0.70;92.20
22173;DHT22;11252;50.596;17.648;2023-12-07T14:49:28;0.70;92.20
22173;DHT22;11252;50.596;17.648;2023-12-07T14:51:56;0.60;92.20
22173;DHT22;11252;50.596;17.648;2023-12-07T14:54:25;0.60;92.20
22173;DHT22;11252;50.596;17.648;2023-12-07T14:56:56;0.70;92.20
22173;DHT22;11252;50.596;17.648;2023-12-07T14:59:24;0.60;92.20
22173;DHT22;11252;50.596;17.648;2023-12-07T15:01:51;0.70;92.20
22173;DHT22;11252;50.596;17.648;2023-12-07T15:04:18;0.70;92.20
22173;DHT22;11252;50.596;17.648;2023-12-07T15:07:00;0.70;92.20
22173;DHT22;11252;50.596;17.648;2023-12-07T15:09:27;0.70;92.20
22173;DHT22;11252;50.596;17.648;2023-12-07T15:11:55;0.70;92.20
22173;DHT22;11252;50.596;17.648;2023-12-07T15:14:23;0.70;92.20
22173;DHT22;11252;50.596;17.648;2023-12-07T15:17:03;0.80;92.20
22173;DHT22;11252;50.596;17.648;2023-12-07T15:19:31;0.70;92.20
22173;DHT22;11252;50.596;17.648;2023-12-07T15:22:00;0.70;92.20
22173;DHT22;11252;50.596;17.648;2023-12-07T15:24:27;0.70;92.20
22173;DHT22;11252;50.596;17.648;2023-12-07T15:27:05;0.60;92.20
22173;DHT22;11252;50.596;17.648;2023-12-07T15:29:33;0.70;92.20
22173;DHT22;11252;50.596;17.648;2023-12-07T15:32:08;0.70;92.20
22173;DHT22;11252;50.596;17.648;2023-12-07T15:34:36;0.80;92.20
22173;DHT22;11252;50.596;17.648;2023-12-07T15:37:08;0.70;92.20
22173;DHT22;11252;50.596;17.648;2023-12-07T15:39:41;0.70;92.20
22173;DHT22;11252;50.596;17.648;2023-12-07T15:42:10;0.70;92.20